Terminal Aerodrome Forecast
Issued by NWS Duluth, MN

Home | Current Version | Previous Version | Text Only | Print | Product List | Glossary On
Versions: 1 2 3 4 5 6 7 8 9 10 11 12 13 14 15 16 17 18 19 20 21
000
FTUS43 KDLH 271730
TAFINL
TAF
KINL 271730Z 2718/2818 24008G14KT P6SM SCT080
     FM280000 25005KT P6SM SCT060 BKN110
     FM280100 VRB03KT P6SM VCSH BKN070
      TEMPO 2801/2805 6SM -SHRA BKN050
     FM280900 VRB03KT P6SM VCSH BKN020 OVC060
     FM281500 29005KT P6SM VCSH OVC030=

USA.gov is the U.S. government's official web portal to all federal, state and local government web resources and services.